createdAt,value
2023-06-08T00:00:41.082Z,77.42
2023-06-08T00:01:45.215Z,77.34
2023-06-08T00:02:48.300Z,77.54
2023-06-08T00:03:50.787Z,77.36
2023-06-08T00:04:54.075Z,77.49
2023-06-08T00:05:58.803Z,77.34
2023-06-08T00:07:04.706Z,77.88
2023-06-08T00:08:10.267Z,77.37
2023-06-08T00:09:13.289Z,77.55
2023-06-08T00:10:16.590Z,77.09
2023-06-08T00:11:19.433Z,77.54
2023-06-08T00:12:22.116Z,77.90
2023-06-08T00:13:24.959Z,77.49
2023-06-08T00:14:27.254Z,78.12
2023-06-08T00:15:30.096Z,77.77
2023-06-08T00:16:33.927Z,77.67
2023-06-08T00:17:36.913Z,77.53
2023-06-08T00:18:40.398Z,77.81
2023-06-08T00:19:44.370Z,77.47
2023-06-08T00:20:47.712Z,77.70
2023-06-08T00:21:50.515Z,77.07
2023-06-08T00:22:53.069Z,77.96
2023-06-08T00:23:55.970Z,77.53
2023-06-08T00:24:57.781Z,77.57
2023-06-08T00:26:02.955Z,77.54
2023-06-08T00:27:06.826Z,77.60
2023-06-08T00:28:09.816Z,77.52
2023-06-08T00:29:11.682Z,77.46
2023-06-08T00:30:16.942Z,77.58
2023-06-08T00:31:20.481Z,77.80
2023-06-08T00:32:23.679Z,77.57
2023-06-08T00:33:25.583Z,77.48
2023-06-08T00:34:28.960Z,77.79
2023-06-08T00:35:31.076Z,77.69
2023-06-08T00:36:34.014Z,77.85
2023-06-08T00:37:37.044Z,77.97
2023-06-08T00:38:39.877Z,77.80
2023-06-08T00:39:41.774Z,78.11
2023-06-08T00:40:45.519Z,77.87
2023-06-08T00:41:48.866Z,77.82
2023-06-08T00:42:51.763Z,78.12
2023-06-08T00:43:53.639Z,78.43
2023-06-08T00:44:56.430Z,78.49
2023-06-08T00:45:58.488Z,78.28
2023-06-08T00:47:01.464Z,78.49
2023-06-08T00:48:04.197Z,78.28
2023-06-08T00:49:08.678Z,78.46
2023-06-08T00:50:10.835Z,78.38
2023-06-08T00:51:14.008Z,78.82
2023-06-08T00:52:16.699Z,78.78
2023-06-08T00:53:20.858Z,78.89
2023-06-08T00:54:26.975Z,78.72
2023-06-08T00:55:30.763Z,78.91
2023-06-08T00:56:35.326Z,79.15
2023-06-08T00:57:39.480Z,78.79
2023-06-08T00:58:48.007Z,78.80
2023-06-08T00:59:50.789Z,78.64
2023-06-08T01:01:00.407Z,78.55
2023-06-08T01:02:05.271Z,78.74
2023-06-08T01:03:08.284Z,78.61
2023-06-08T01:04:11.055Z,79.16
2023-06-08T01:05:17.475Z,79.25
2023-06-08T01:06:22.061Z,79.42
2023-06-08T01:07:29.776Z,79.17
2023-06-08T01:08:43.805Z,78.80
2023-06-08T01:09:53.037Z,79.36
2023-06-08T01:10:59.310Z,79.50
2023-06-08T01:12:11.409Z,79.23
2023-06-08T01:13:18.561Z,79.07
2023-06-08T01:14:27.487Z,79.35
2023-06-08T01:15:32.926Z,79.04
2023-06-08T01:16:39.437Z,79.28
2023-06-08T01:17:43.854Z,78.66
2023-06-08T01:18:48.482Z,78.86
2023-06-08T01:20:06.792Z,78.86
2023-06-08T01:21:15.318Z,78.92
2023-06-08T01:22:21.817Z,79.09
2023-06-08T01:23:35.708Z,79.23
2023-06-08T01:24:41.432Z,79.25
2023-06-08T01:25:46.899Z,79.19
2023-06-08T01:26:50.536Z,78.98
2023-06-08T01:28:00.204Z,79.15
2023-06-08T01:29:02.487Z,79.11
2023-06-08T01:30:06.027Z,78.97
2023-06-08T01:31:08.015Z,79.02
2023-06-08T01:32:12.938Z,79.23
2023-06-08T01:33:17.697Z,79.32
2023-06-08T01:34:22.525Z,79.82
2023-06-08T01:35:24.381Z,79.88
2023-06-08T01:36:29.308Z,79.95
2023-06-08T01:37:36.840Z,80.33
2023-06-08T01:38:45.553Z,80.19
2023-06-08T01:39:53.257Z,80.23
2023-06-08T01:40:57.336Z,80.43
2023-06-08T01:42:01.580Z,80.40
2023-06-08T01:43:06.495Z,80.20
2023-06-08T01:44:09.870Z,80.29
2023-06-08T01:45:17.973Z,80.38
2023-06-08T01:46:21.453Z,80.40
2023-06-08T01:49:08.739Z,79.83
2023-06-08T01:50:11.660Z,79.68
2023-06-08T01:51:15.752Z,79.48
2023-06-08T01:52:17.683Z,79.28
2023-06-08T01:53:20.667Z,79.31
2023-06-08T01:54:23.007Z,79.55
2023-06-08T01:55:29.122Z,79.29
2023-06-08T01:56:31.987Z,79.39
2023-06-08T01:57:34.799Z,79.40
2023-06-08T01:58:36.799Z,79.73
2023-06-08T01:59:39.754Z,79.60
2023-06-08T02:00:41.622Z,79.75
2023-06-08T02:01:44.602Z,79.44
2023-06-08T02:02:48.085Z,79.50
2023-06-08T02:03:51.086Z,79.45
2023-06-08T02:04:53.036Z,79.78
2023-06-08T02:05:56.024Z,79.87
2023-06-08T02:06:57.884Z,79.67
2023-06-08T02:08:01.383Z,79.80
2023-06-08T02:09:03.819Z,79.89
2023-06-08T02:10:07.953Z,80.05
2023-06-08T02:11:14.069Z,79.84
2023-06-08T02:12:16.930Z,79.69
2023-06-08T02:13:18.752Z,80.06
2023-06-08T02:14:21.574Z,80.06
2023-06-08T02:15:26.409Z,80.09
2023-06-08T02:16:29.242Z,80.22
2023-06-08T02:17:34.731Z,80.64
2023-06-08T02:18:41.621Z,81.02
2023-06-08T02:19:43.519Z,81.25
2023-06-08T02:20:46.323Z,81.30
2023-06-08T02:21:48.175Z,81.57
2023-06-08T02:22:53.755Z,81.77
2023-06-08T02:23:55.630Z,81.61
2023-06-08T02:24:58.491Z,81.44
2023-06-08T02:26:00.431Z,81.18
2023-06-08T02:27:04.984Z,81.51
2023-06-08T02:28:06.991Z,81.41
2023-06-08T02:29:09.798Z,81.66
2023-06-08T02:30:13.263Z,81.45
2023-06-08T02:31:16.218Z,81.35
2023-06-08T02:32:18.079Z,81.01
2023-06-08T02:33:21.607Z,81.26
2023-06-08T02:34:24.418Z,81.79
2023-06-08T02:35:27.324Z,82.09
2023-06-08T02:36:32.896Z,81.73
2023-06-08T02:37:37.981Z,81.89
2023-06-08T02:38:40.031Z,81.03
2023-06-08T02:39:44.323Z,81.52
2023-06-08T02:40:46.270Z,81.84
2023-06-08T02:41:50.812Z,81.80
2023-06-08T02:42:54.051Z,81.82
2023-06-08T02:43:59.787Z,82.17
2023-06-08T02:45:02.720Z,82.13
2023-06-08T02:46:05.768Z,82.42
2023-06-08T02:47:08.967Z,82.70
2023-06-08T02:48:11.842Z,82.91
2023-06-08T02:49:13.775Z,82.66
2023-06-08T02:50:16.673Z,82.66
2023-06-08T02:51:20.150Z,82.90
2023-06-08T02:52:23.641Z,82.84
2023-06-08T02:53:25.535Z,83.29
2023-06-08T02:54:28.358Z,83.67
2023-06-08T02:55:36.152Z,83.80
2023-06-08T02:56:42.966Z,83.87
2023-06-08T02:57:45.012Z,83.98
2023-06-08T02:58:50.767Z,84.02
2023-06-08T02:59:53.705Z,84.23
2023-06-08T03:01:11.804Z,83.98
2023-06-08T03:02:45.270Z,84.28
2023-06-08T03:03:48.475Z,83.85
2023-06-08T03:04:54.553Z,84.17
2023-06-08T03:06:00.248Z,83.90
2023-06-08T03:07:10.539Z,83.48
2023-06-08T03:08:14.985Z,83.69
2023-06-08T03:09:18.837Z,83.63
2023-06-08T03:10:27.617Z,83.33
2023-06-08T03:11:29.656Z,83.49
2023-06-08T03:12:32.488Z,83.36
2023-06-08T03:13:36.301Z,83.72
2023-06-08T03:14:41.838Z,83.91
2023-06-08T03:15:46.135Z,83.43
2023-06-08T03:16:49.690Z,83.58
2023-06-08T03:17:53.024Z,83.79
2023-06-08T03:18:57.424Z,83.71
2023-06-08T03:20:01.065Z,83.65
2023-06-08T03:21:06.047Z,84.08
2023-06-08T03:22:08.632Z,83.78
2023-06-08T03:23:33.329Z,84.24
2023-06-08T03:24:37.574Z,83.68
2023-06-08T03:25:40.500Z,83.69
2023-06-08T03:26:44.986Z,83.78
2023-06-08T03:27:49.295Z,84.46
2023-06-08T03:28:51.716Z,84.75
2023-06-08T03:29:56.399Z,85.18
2023-06-08T03:31:02.346Z,85.07
2023-06-08T03:32:13.641Z,85.40
2023-06-08T03:33:17.016Z,85.76
2023-06-08T03:34:27.267Z,85.55
2023-06-08T03:35:34.135Z,85.73
2023-06-08T03:36:51.864Z,86.25
2023-06-08T03:37:57.714Z,86.51
2023-06-08T03:39:00.538Z,86.01
2023-06-08T03:40:02.567Z,86.98
2023-06-08T03:41:06.766Z,86.73
2023-06-08T03:42:09.386Z,86.90
2023-06-08T03:43:16.122Z,86.39
2023-06-08T03:44:18.636Z,87.26
2023-06-08T03:45:23.961Z,86.63
2023-06-08T03:46:28.597Z,86.35
2023-06-08T03:47:33.444Z,86.77
2023-06-08T03:48:36.528Z,86.23
2023-06-08T03:49:40.398Z,87.00
2023-06-08T03:50:45.309Z,86.90
2023-06-08T03:51:49.109Z,86.39
2023-06-08T03:52:51.170Z,86.24
2023-06-08T03:53:54.199Z,86.32
2023-06-08T03:54:57.189Z,86.35
2023-06-08T03:56:00.094Z,86.22
2023-06-08T03:57:02.764Z,85.40
2023-06-08T03:58:06.196Z,86.04
2023-06-08T03:59:08.283Z,86.47
2023-06-08T04:00:12.709Z,86.59
2023-06-08T04:01:18.897Z,86.93
2023-06-08T04:02:21.935Z,87.25
2023-06-08T04:03:26.098Z,87.34
2023-06-08T04:04:30.515Z,87.38
2023-06-08T04:05:33.406Z,87.15
2023-06-08T04:06:39.614Z,87.22
2023-06-08T04:07:43.177Z,87.69
2023-06-08T04:08:46.460Z,87.75
2023-06-08T04:09:48.576Z,88.05
2023-06-08T04:10:51.386Z,87.69
2023-06-08T04:11:53.447Z,87.95
2023-06-08T04:12:59.485Z,88.90
2023-06-08T04:14:01.386Z,89.07
2023-06-08T04:15:04.953Z,89.61
2023-06-08T04:16:09.862Z,90.56
2023-06-08T04:17:17.596Z,90.23
2023-06-08T04:18:19.808Z,90.48
2023-06-08T04:19:22.675Z,90.32
2023-06-08T04:20:24.526Z,90.75
2023-06-08T04:21:28.430Z,90.62
2023-06-08T04:22:36.321Z,90.37
2023-06-08T04:23:39.680Z,90.65
2023-06-08T04:24:43.542Z,90.53
2023-06-08T04:25:47.208Z,90.09
2023-06-08T04:26:49.202Z,91.00
2023-06-08T04:27:53.075Z,91.76
2023-06-08T04:28:56.678Z,92.59
2023-06-08T04:30:05.550Z,93.85
2023-06-08T04:31:09.254Z,94.96
2023-06-08T04:32:12.736Z,95.17
2023-06-08T04:33:16.223Z,95.60
2023-06-08T04:34:19.906Z,95.74
2023-06-08T04:35:22.503Z,95.82
2023-06-08T04:36:25.506Z,95.92
2023-06-08T04:37:29.239Z,96.88
2023-06-08T04:38:31.234Z,96.38
2023-06-08T04:39:35.055Z,96.40
2023-06-08T04:40:38.531Z,96.35
2023-06-08T04:41:42.503Z,95.75
2023-06-08T04:42:45.635Z,94.35
2023-06-08T04:43:50.685Z,93.94
2023-06-08T04:45:00.738Z,92.80
2023-06-08T04:46:06.240Z,92.59
2023-06-08T04:47:10.122Z,91.76
2023-06-08T04:48:13.324Z,90.55
2023-06-08T04:49:17.717Z,90.47
2023-06-08T04:50:19.693Z,89.46
2023-06-08T04:51:24.729Z,88.26
2023-06-08T04:52:31.192Z,86.50
2023-06-08T04:53:34.818Z,85.37
2023-06-08T04:54:38.353Z,83.84
2023-06-08T04:55:46.335Z,82.17
2023-06-08T04:56:49.187Z,80.92
2023-06-08T04:57:51.174Z,79.97
2023-06-08T04:58:53.958Z,78.94
2023-06-08T04:59:55.913Z,78.33
2023-06-08T05:00:59.523Z,77.67
2023-06-08T05:02:02.530Z,76.84
2023-06-08T05:03:05.618Z,76.55
2023-06-08T05:04:09.049Z,76.45
2023-06-08T05:05:14.078Z,75.88
2023-06-08T05:06:16.024Z,75.96
2023-06-08T05:07:18.860Z,75.73
2023-06-08T05:08:20.723Z,75.74
2023-06-08T05:09:23.639Z,76.16
2023-06-08T05:10:25.448Z,76.30
2023-06-08T05:11:28.272Z,76.57
2023-06-08T05:12:30.121Z,76.61
2023-06-08T05:13:32.926Z,76.67
2023-06-08T05:14:34.762Z,76.54
2023-06-08T05:15:37.555Z,77.09
2023-06-08T05:16:39.511Z,77.49
2023-06-08T05:17:42.389Z,77.91
2023-06-08T05:18:44.424Z,78.52
2023-06-08T05:19:47.252Z,79.11
2023-06-08T05:20:50.431Z,79.26
2023-06-08T05:21:53.276Z,79.64
2023-06-08T05:22:55.110Z,80.38
2023-06-08T05:23:57.875Z,81.23
2023-06-08T05:24:59.786Z,81.08
2023-06-08T05:26:02.591Z,81.54
2023-06-08T05:27:05.299Z,81.03
2023-06-08T05:28:08.179Z,80.92
2023-06-08T05:29:09.972Z,80.45
2023-06-08T05:30:13.341Z,80.65
2023-06-08T05:31:15.409Z,80.40
2023-06-08T05:32:18.219Z,80.08
2023-06-08T05:33:20.084Z,79.57
2023-06-08T05:34:22.924Z,79.00
2023-06-08T05:35:25.060Z,78.27
2023-06-08T05:36:29.199Z,77.97
2023-06-08T05:37:32.087Z,77.13
2023-06-08T05:38:33.967Z,76.42
2023-06-08T05:39:36.726Z,75.33
2023-06-08T05:40:38.634Z,75.25
2023-06-08T05:41:41.414Z,74.07
2023-06-08T05:42:43.273Z,73.78
2023-06-08T05:43:46.104Z,73.63
2023-06-08T05:44:47.986Z,72.94
2023-06-08T05:45:50.858Z,72.64
2023-06-08T05:46:52.716Z,72.26
2023-06-08T05:47:55.672Z,71.33
2023-06-08T05:48:57.595Z,71.30
2023-06-08T05:50:00.523Z,70.91
2023-06-08T05:51:02.555Z,70.43
2023-06-08T05:52:07.291Z,70.20
2023-06-08T05:53:10.179Z,69.83
2023-06-08T05:54:11.988Z,69.42
2023-06-08T05:55:14.777Z,68.95
2023-06-08T05:56:16.626Z,68.93
2023-06-08T05:57:19.434Z,68.03
2023-06-08T05:58:26.288Z,68.15
2023-06-08T05:59:33.826Z,67.64
2023-06-08T06:00:36.342Z,67.85
2023-06-08T06:01:39.175Z,67.37
2023-06-08T06:02:41.502Z,66.26
2023-06-08T06:03:44.623Z,65.93
2023-06-08T06:04:46.747Z,65.59
2023-06-08T06:05:50.281Z,65.36
2023-06-08T06:06:52.092Z,65.08
2023-06-08T06:07:56.219Z,64.96
2023-06-08T06:08:58.125Z,64.77
2023-06-08T06:10:01.004Z,64.46
2023-06-08T06:11:02.953Z,63.90
2023-06-08T06:12:08.448Z,63.21
2023-06-08T06:13:11.240Z,63.38
2023-06-08T06:14:13.079Z,63.10
2023-06-08T06:15:15.923Z,62.93
2023-06-08T06:16:19.581Z,62.61
2023-06-08T06:17:21.770Z,62.17
2023-06-08T06:18:24.719Z,61.72
2023-06-08T06:19:26.613Z,61.87
2023-06-08T06:20:30.923Z,62.10
2023-06-08T06:21:32.803Z,61.76
2023-06-08T06:22:35.673Z,61.51
2023-06-08T06:23:39.129Z,61.10
2023-06-08T06:24:42.107Z,61.36
2023-06-08T06:25:44.206Z,61.30
2023-06-08T06:26:46.989Z,60.72
2023-06-08T06:27:48.932Z,60.34
2023-06-08T06:28:51.697Z,60.37
2023-06-08T06:29:53.958Z,59.94
2023-06-08T06:30:56.799Z,59.53
2023-06-08T06:31:59.147Z,59.35
2023-06-08T06:33:02.108Z,58.73
2023-06-08T06:34:04.146Z,58.12
2023-06-08T06:35:08.081Z,58.08
2023-06-08T06:36:09.886Z,58.13
2023-06-08T06:37:12.697Z,57.51
2023-06-08T06:38:14.592Z,56.88
2023-06-08T06:39:19.916Z,56.63
2023-06-08T06:40:21.946Z,56.68
2023-06-08T06:41:24.706Z,56.38
2023-06-08T06:42:26.557Z,55.93
2023-06-08T06:43:37.332Z,56.50
2023-06-08T06:44:41.360Z,55.38
2023-06-08T06:45:45.035Z,55.37
2023-06-08T06:46:47.212Z,55.49
2023-06-08T06:47:50.076Z,55.41
2023-06-08T06:48:52.198Z,55.06
2023-06-08T06:49:55.032Z,54.88
2023-06-08T06:50:56.873Z,54.51
2023-06-08T06:51:59.677Z,54.58
2023-06-08T06:53:01.570Z,54.19
2023-06-08T06:54:04.741Z,54.33
2023-06-08T06:55:09.205Z,54.46
2023-06-08T06:56:11.255Z,54.26
2023-06-08T06:57:14.014Z,53.84
2023-06-08T06:58:16.206Z,53.37
2023-06-08T06:59:21.497Z,53.20
2023-06-08T07:00:25.002Z,53.08
2023-06-08T07:01:27.961Z,53.23
2023-06-08T07:02:29.930Z,52.90
2023-06-08T07:03:32.889Z,52.72
2023-06-08T07:04:34.741Z,51.98
2023-06-08T07:05:38.288Z,52.46
2023-06-08T07:06:42.707Z,52.51
2023-06-08T07:07:45.727Z,51.99
2023-06-08T07:08:47.571Z,52.57
2023-06-08T07:09:50.355Z,52.39
2023-06-08T07:10:53.501Z,52.22
2023-06-08T07:12:13.593Z,52.00
2023-06-08T07:13:18.258Z,52.32
2023-06-08T07:14:20.073Z,51.62
2023-06-08T07:15:22.953Z,51.93
2023-06-08T07:16:27.751Z,51.47
2023-06-08T07:17:30.863Z,51.09
2023-06-08T07:18:33.052Z,51.32
2023-06-08T07:19:36.055Z,51.37
2023-06-08T07:20:38.393Z,51.62
2023-06-08T07:21:49.397Z,51.37
2023-06-08T07:22:57.366Z,51.29
2023-06-08T07:24:25.835Z,51.22
2023-06-08T07:26:25.190Z,51.75
2023-06-08T07:26:57.444Z,51.14
2023-06-08T07:27:59.344Z,50.78
2023-06-08T07:29:04.137Z,51.01
2023-06-08T07:30:08.279Z,50.50
2023-06-08T07:31:10.422Z,50.94
2023-06-08T07:32:13.436Z,51.29
2023-06-08T07:33:15.318Z,51.07
2023-06-08T07:34:18.170Z,51.14
2023-06-08T07:35:21.732Z,50.53
2023-06-08T07:36:24.650Z,50.57
2023-06-08T07:37:26.526Z,50.62
2023-06-08T07:38:29.404Z,50.42
2023-06-08T07:39:31.243Z,50.93
2023-06-08T07:40:34.066Z,50.88
2023-06-08T07:41:35.987Z,50.12
2023-06-08T07:42:40.122Z,50.42
2023-06-08T07:43:41.993Z,50.36
2023-06-08T07:44:44.846Z,50.39
2023-06-08T07:45:46.650Z,50.24
2023-06-08T07:46:49.506Z,50.56
2023-06-08T07:47:51.372Z,50.72
2023-06-08T07:48:54.190Z,50.38
2023-06-08T07:49:57.023Z,49.79
2023-06-08T07:50:59.918Z,49.66
2023-06-08T07:52:01.732Z,49.10
2023-06-08T07:53:04.509Z,49.03
2023-06-08T07:54:07.360Z,49.27
2023-06-08T07:55:10.045Z,49.06
2023-06-08T07:56:12.873Z,49.26
2023-06-08T07:57:15.682Z,49.06
2023-06-08T07:58:18.867Z,48.70
2023-06-08T07:59:21.779Z,48.80
2023-06-08T08:00:24.652Z,49.09
2023-06-08T08:01:28.370Z,48.98
2023-06-08T08:02:30.403Z,49.13
2023-06-08T08:03:38.657Z,48.85
2023-06-08T08:04:41.762Z,49.20
2023-06-08T08:05:44.606Z,48.64
2023-06-08T08:06:46.652Z,48.70
2023-06-08T08:07:49.458Z,48.74
2023-06-08T08:08:51.477Z,48.17
2023-06-08T08:09:54.326Z,48.21
2023-06-08T08:10:57.115Z,48.63
2023-06-08T08:11:59.924Z,48.98
2023-06-08T08:13:01.775Z,49.49
2023-06-08T08:14:10.400Z,49.78
2023-06-08T08:15:12.302Z,49.73
2023-06-08T08:16:15.472Z,50.22
2023-06-08T08:17:17.337Z,50.40
2023-06-08T08:18:20.577Z,49.83
2023-06-08T08:19:23.565Z,49.72
2023-06-08T08:20:25.468Z,49.80
2023-06-08T08:21:28.246Z,50.00
2023-06-08T08:22:30.097Z,50.41
2023-06-08T08:23:32.963Z,50.26
2023-06-08T08:24:34.840Z,50.23
2023-06-08T08:25:37.733Z,50.17
2023-06-08T08:26:41.731Z,50.41
2023-06-08T08:27:44.572Z,50.88
2023-06-08T08:28:48.201Z,51.10
2023-06-08T08:29:52.376Z,51.04
2023-06-08T08:30:55.299Z,50.41
2023-06-08T08:31:58.319Z,50.21
2023-06-08T08:33:00.277Z,49.69
2023-06-08T08:34:03.092Z,49.16
2023-06-08T08:35:06.917Z,48.99
2023-06-08T08:36:08.732Z,48.72
2023-06-08T08:37:11.512Z,48.38
2023-06-08T08:38:13.385Z,48.47
2023-06-08T08:39:16.943Z,48.26
2023-06-08T08:40:18.828Z,48.18
2023-06-08T08:41:22.553Z,49.09
2023-06-08T08:42:26.370Z,49.16
2023-06-08T08:43:39.586Z,48.49
2023-06-08T08:44:43.617Z,48.73
2023-06-08T08:45:47.031Z,48.63
2023-06-08T08:46:51.113Z,48.41
2023-06-08T08:47:54.644Z,48.81
2023-06-08T08:48:59.324Z,49.00
2023-06-08T08:50:07.628Z,49.38
2023-06-08T08:51:14.467Z,49.59
2023-06-08T08:52:20.418Z,49.84
2023-06-08T08:53:28.569Z,49.26
2023-06-08T08:54:34.916Z,48.94
2023-06-08T08:55:37.760Z,48.79
2023-06-08T08:56:40.724Z,48.61
2023-06-08T08:57:42.881Z,48.75
2023-06-08T08:58:46.157Z,48.87
2023-06-08T08:59:48.177Z,48.71
2023-06-08T09:00:53.110Z,49.02
2023-06-08T09:01:55.045Z,49.47
2023-06-08T09:02:57.958Z,49.45
2023-06-08T09:03:59.893Z,49.12
2023-06-08T09:05:04.961Z,48.86
2023-06-08T09:06:06.850Z,49.38
2023-06-08T09:07:09.627Z,49.22
2023-06-08T09:08:11.944Z,48.99
2023-06-08T09:09:14.732Z,49.23
2023-06-08T09:10:19.172Z,49.08
2023-06-08T09:11:22.396Z,49.29
2023-06-08T09:12:24.594Z,48.59
2023-06-08T09:13:27.497Z,48.13
2023-06-08T09:14:30.258Z,48.56
2023-06-08T09:15:35.131Z,47.73
2023-06-08T09:16:44.443Z,47.10
2023-06-08T09:17:50.228Z,47.12
2023-06-08T09:19:07.762Z,46.52
2023-06-08T09:20:11.450Z,47.02
2023-06-08T09:21:24.063Z,45.07
2023-06-08T09:22:29.313Z,46.49
2023-06-08T09:23:33.810Z,45.63
2023-06-08T09:24:37.066Z,45.24
2023-06-08T09:25:39.331Z,45.15
2023-06-08T09:26:47.133Z,45.45
2023-06-08T09:27:49.096Z,45.07
2023-06-08T09:28:51.896Z,44.97
2023-06-08T09:29:55.302Z,44.59
2023-06-08T09:30:59.273Z,44.36
2023-06-08T09:32:02.738Z,43.96
2023-06-08T09:33:20.435Z,42.35
2023-06-08T09:34:22.853Z,43.68
2023-06-08T09:35:26.068Z,43.44
2023-06-08T09:36:28.110Z,43.66
2023-06-08T09:37:31.696Z,43.11
2023-06-08T09:38:34.989Z,43.39
2023-06-08T09:39:41.101Z,43.02
2023-06-08T09:40:43.976Z,42.86
2023-06-08T09:41:57.741Z,42.08
2023-06-08T09:42:59.609Z,43.25
2023-06-08T09:44:02.789Z,43.08
2023-06-08T09:45:09.208Z,42.58
2023-06-08T09:46:17.308Z,43.06
2023-06-08T09:47:26.625Z,42.71
2023-06-08T09:48:28.837Z,42.75
2023-06-08T09:49:31.864Z,42.99
2023-06-08T09:50:33.710Z,42.13
2023-06-08T09:51:37.693Z,41.79
2023-06-08T09:52:41.899Z,41.19
2023-06-08T09:53:44.646Z,41.65
2023-06-08T09:54:48.260Z,42.37
2023-06-08T09:55:51.287Z,42.17
2023-06-08T09:56:55.999Z,41.71
2023-06-08T09:57:58.899Z,42.06
2023-06-08T09:59:06.112Z,41.96
2023-06-08T10:00:15.648Z,41.54
2023-06-08T10:01:19.297Z,41.19
2023-06-08T10:02:26.961Z,41.63
2023-06-08T10:03:31.418Z,41.41
2023-06-08T10:04:37.664Z,40.91
2023-06-08T10:05:45.035Z,40.89
2023-06-08T10:06:48.263Z,40.96
2023-06-08T10:07:54.531Z,41.07
2023-06-08T10:08:57.487Z,40.92
2023-06-08T10:10:05.556Z,40.61
2023-06-08T10:11:11.416Z,40.56
2023-06-08T10:12:14.806Z,40.65
2023-06-08T10:13:17.087Z,40.90
2023-06-08T10:14:20.063Z,40.80
2023-06-08T10:15:23.479Z,40.69
2023-06-08T10:16:26.443Z,40.75
2023-06-08T10:17:31.627Z,40.68
2023-06-08T10:18:35.584Z,40.83
2023-06-08T10:19:37.499Z,40.73
2023-06-08T10:20:40.558Z,40.34
2023-06-08T10:21:42.744Z,40.28
2023-06-08T10:22:46.358Z,40.00
2023-06-08T10:23:48.325Z,40.26
2023-06-08T10:25:08.014Z,40.50
2023-06-08T10:26:13.806Z,39.90
2023-06-08T10:27:19.260Z,40.30
2023-06-08T10:28:22.489Z,39.97
2023-06-08T10:29:28.212Z,39.55
2023-06-08T10:30:32.641Z,39.41
2023-06-08T10:31:35.716Z,39.31
2023-06-08T10:32:43.587Z,39.67
2023-06-08T10:33:45.439Z,39.53
2023-06-08T10:34:51.460Z,39.25
2023-06-08T10:36:04.215Z,39.19
2023-06-08T10:37:07.169Z,39.42
2023-06-08T10:38:10.177Z,39.54
2023-06-08T10:39:15.326Z,39.99
2023-06-08T10:40:19.641Z,40.15
2023-06-08T10:41:38.577Z,39.84
2023-06-08T10:42:52.594Z,40.61
2023-06-08T10:43:59.518Z,40.96
2023-06-08T10:45:03.937Z,40.97
2023-06-08T10:46:06.047Z,40.86
2023-06-08T10:47:09.880Z,40.86
2023-06-08T10:48:20.365Z,39.48
2023-06-08T10:49:22.329Z,40.28
2023-06-08T10:50:25.570Z,40.72
2023-06-08T10:51:27.576Z,40.62
2023-06-08T10:52:31.227Z,40.63
2023-06-08T10:53:56.454Z,40.72
2023-06-08T10:55:01.154Z,40.91
2023-06-08T10:56:03.030Z,41.30
2023-06-08T10:57:15.108Z,41.63
2023-06-08T10:58:20.231Z,41.37
2023-06-08T10:59:35.015Z,40.99
2023-06-08T11:00:45.308Z,41.91
2023-06-08T11:01:47.461Z,42.07
2023-06-08T11:02:50.668Z,42.34
2023-06-08T11:03:59.647Z,42.80
2023-06-08T11:05:03.669Z,42.40
2023-06-08T11:06:14.839Z,42.42
2023-06-08T11:07:20.911Z,42.42
2023-06-08T11:08:24.060Z,42.45
2023-06-08T11:09:25.974Z,41.67
2023-06-08T11:10:29.251Z,41.47
2023-06-08T11:11:32.647Z,41.61
2023-06-08T11:12:34.540Z,41.30
2023-06-08T11:13:37.328Z,40.83
2023-06-08T11:14:39.137Z,40.56
2023-06-08T11:15:45.148Z,40.58
2023-06-08T11:16:49.554Z,40.61
2023-06-08T11:17:56.378Z,40.71
2023-06-08T11:19:00.679Z,40.80
2023-06-08T11:20:05.320Z,41.36
2023-06-08T11:21:08.145Z,41.87
2023-06-08T11:22:10.040Z,42.30
2023-06-08T11:23:14.182Z,41.90
2023-06-08T11:24:16.578Z,41.87
2023-06-08T11:25:20.424Z,42.15
2023-06-08T11:26:23.789Z,41.79
2023-06-08T11:27:26.656Z,41.84
2023-06-08T11:28:28.831Z,41.94
2023-06-08T11:29:31.959Z,42.02
2023-06-08T11:30:34.720Z,42.15
2023-06-08T11:31:41.439Z,42.38
2023-06-08T11:32:44.665Z,42.71
2023-06-08T11:33:49.311Z,42.77
2023-06-08T11:34:54.288Z,43.28
2023-06-08T11:35:57.174Z,43.74
2023-06-08T11:36:59.194Z,43.67
2023-06-08T11:38:02.671Z,44.26
2023-06-08T11:39:04.534Z,44.02
2023-06-08T11:40:12.150Z,44.50
2023-06-08T11:41:15.560Z,44.59
2023-06-08T11:42:17.450Z,44.87
2023-06-08T11:43:22.355Z,45.29
2023-06-08T11:44:26.899Z,45.57
2023-06-08T11:45:30.284Z,45.58
2023-06-08T11:46:33.845Z,45.37
2023-06-08T11:47:36.830Z,45.72
2023-06-08T11:48:41.856Z,45.38
2023-06-08T11:49:55.316Z,45.64
2023-06-08T11:50:58.169Z,46.12
2023-06-08T11:51:59.994Z,45.65
2023-06-08T11:53:03.672Z,44.98
2023-06-08T11:54:05.687Z,44.91
2023-06-08T11:55:13.013Z,44.83
2023-06-08T11:56:14.861Z,44.90
2023-06-08T11:57:17.718Z,44.69
2023-06-08T11:58:24.437Z,44.63
2023-06-08T11:59:27.943Z,44.27
2023-06-08T12:00:32.338Z,43.95
2023-06-08T12:01:36.267Z,44.30
2023-06-08T12:02:39.270Z,44.15
2023-06-08T12:03:45.091Z,44.45
2023-06-08T12:04:47.516Z,44.20
2023-06-08T12:05:58.929Z,44.29
2023-06-08T12:07:10.559Z,44.12
2023-06-08T12:08:15.653Z,44.25
2023-06-08T12:09:18.576Z,44.07
2023-06-08T12:10:20.479Z,44.35
2023-06-08T12:11:25.856Z,44.45
2023-06-08T12:12:30.359Z,44.56
2023-06-08T12:13:33.147Z,44.66
2023-06-08T12:14:35.180Z,44.47
2023-06-08T12:15:39.256Z,44.75
2023-06-08T12:16:44.121Z,44.69
2023-06-08T12:17:47.588Z,44.63
2023-06-08T12:18:50.483Z,44.87
2023-06-08T12:19:55.605Z,45.11
2023-06-08T12:20:59.710Z,45.23
2023-06-08T12:22:02.018Z,45.76
2023-06-08T12:23:05.890Z,45.59
2023-06-08T12:24:07.949Z,45.66
2023-06-08T12:25:10.954Z,45.92
2023-06-08T12:26:14.715Z,45.76
2023-06-08T12:27:16.562Z,45.71
2023-06-08T12:28:20.112Z,45.83
2023-06-08T12:29:23.507Z,45.79
2023-06-08T12:30:25.725Z,45.45
2023-06-08T12:31:29.144Z,45.63
2023-06-08T12:32:33.281Z,45.53
2023-06-08T12:33:36.302Z,45.90
2023-06-08T12:34:38.145Z,45.91
2023-06-08T12:35:41.670Z,45.52
2023-06-08T12:36:44.880Z,45.83
2023-06-08T12:37:50.084Z,45.70
2023-06-08T12:38:52.071Z,45.73
2023-06-08T12:39:55.000Z,45.64
2023-06-08T12:40:58.881Z,45.69
2023-06-08T12:42:01.025Z,45.88
2023-06-08T12:43:03.876Z,45.65
2023-06-08T12:44:05.725Z,45.37
2023-06-08T12:45:09.673Z,45.50
2023-06-08T12:46:12.077Z,45.82
2023-06-08T12:47:15.289Z,45.53
2023-06-08T12:48:17.254Z,45.52
2023-06-08T12:49:20.061Z,45.46
2023-06-08T12:50:23.717Z,45.72
2023-06-08T12:51:26.726Z,45.72
2023-06-08T12:58:07.517Z,46.05
2023-06-08T12:59:10.113Z,46.53
2023-06-08T13:00:13.995Z,46.53
2023-06-08T13:01:15.872Z,46.66
2023-06-08T13:02:20.496Z,46.58
2023-06-08T13:03:24.317Z,46.82
2023-06-08T13:04:30.067Z,47.02
2023-06-08T13:05:33.393Z,47.07
2023-06-08T13:06:36.400Z,47.04
2023-06-08T13:07:39.011Z,47.05
2023-06-08T13:08:41.990Z,47.58
2023-06-08T13:09:43.813Z,47.08
2023-06-08T13:10:46.622Z,46.75
2023-06-08T13:11:48.642Z,46.60
2023-06-08T13:12:51.503Z,46.59
2023-06-08T13:13:54.693Z,45.78
2023-06-08T13:14:57.705Z,46.04
2023-06-08T13:16:01.181Z,45.52
2023-06-08T13:17:04.159Z,45.60
2023-06-08T13:18:08.187Z,45.31
2023-06-08T13:19:11.181Z,44.94
2023-06-08T13:20:13.879Z,44.27
2023-06-08T13:21:17.359Z,43.93
2023-06-08T13:22:19.742Z,43.61
2023-06-08T13:23:25.409Z,43.42
2023-06-08T13:24:28.378Z,43.88
2023-06-08T13:25:30.650Z,44.14
2023-06-08T13:26:33.739Z,44.55
2023-06-08T13:27:35.613Z,44.73
2023-06-08T13:28:39.469Z,45.03
2023-06-08T13:29:49.201Z,45.00
2023-06-08T13:30:52.017Z,45.63
2023-06-08T13:31:54.769Z,45.58
2023-06-08T13:33:00.749Z,45.38
2023-06-08T13:34:03.424Z,45.68
2023-06-08T13:35:06.943Z,45.78
2023-06-08T13:36:08.774Z,45.88
2023-06-08T13:37:13.173Z,46.00
2023-06-08T13:38:16.079Z,46.52
2023-06-08T13:39:18.997Z,46.19
2023-06-08T13:40:21.471Z,45.68
2023-06-08T13:41:24.271Z,45.32
2023-06-08T13:42:26.328Z,44.98
2023-06-08T13:43:29.710Z,44.38
2023-06-08T13:44:32.777Z,43.88
2023-06-08T13:45:37.311Z,43.68
2023-06-08T13:46:40.483Z,43.24
2023-06-08T13:47:43.457Z,43.09
2023-06-08T13:48:45.323Z,43.22
2023-06-08T13:49:48.155Z,43.80
2023-06-08T13:50:49.955Z,43.98
2023-06-08T13:51:53.592Z,44.32
2023-06-08T13:52:58.070Z,44.22